createdAt,value
2022-07-31T00:01:29.608Z,3.22
2022-07-31T00:03:58.283Z,2.40
2022-07-31T00:06:26.541Z,2.40
2022-07-31T00:08:54.639Z,2.78
2022-07-31T00:11:23.340Z,2.42
2022-07-31T00:13:56.687Z,2.33
2022-07-31T00:16:26.675Z,2.38
2022-07-31T00:18:55.390Z,2.53
2022-07-31T00:21:23.602Z,2.30
2022-07-31T00:23:52.552Z,2.78
2022-07-31T00:26:20.960Z,2.10
2022-07-31T00:28:49.347Z,2.38
2022-07-31T00:31:19.885Z,2.55
2022-07-31T00:33:48.172Z,2.30
2022-07-31T00:36:16.344Z,2.60
2022-07-31T00:38:44.951Z,2.50
2022-07-31T00:41:13.431Z,2.33
2022-07-31T00:43:41.722Z,2.50
2022-07-31T00:46:14.462Z,2.42
2022-07-31T00:48:44.733Z,2.05
2022-07-31T00:51:13.164Z,2.40
2022-07-31T00:53:41.365Z,2.47
2022-07-31T00:56:09.680Z,2.60
2022-07-31T00:58:38.071Z,2.90
2022-07-31T01:01:06.475Z,2.75
2022-07-31T01:03:34.892Z,3.20
2022-07-31T01:06:05.080Z,2.85
2022-07-31T01:08:33.175Z,2.67
2022-07-31T01:11:06.202Z,3.00
2022-07-31T01:13:38.852Z,3.03
2022-07-31T01:16:10.921Z,2.80
2022-07-31T01:18:40.534Z,2.75
2022-07-31T01:21:15.900Z,3.00
2022-07-31T01:23:55.058Z,2.55
2022-07-31T01:26:35.659Z,2.60
2022-07-31T01:29:23.503Z,2.80
2022-07-31T01:31:59.888Z,2.75
2022-07-31T01:34:36.819Z,3.10
2022-07-31T01:37:10.432Z,2.20
2022-07-31T01:39:43.296Z,2.80
2022-07-31T01:42:16.856Z,3.00
2022-07-31T01:47:18.370Z,2.70
2022-07-31T01:49:49.321Z,2.40
2022-07-31T01:52:19.134Z,2.90
2022-07-31T01:54:48.739Z,3.50
2022-07-31T01:57:18.828Z,2.70
2022-07-31T01:59:50.887Z,2.80
2022-07-31T02:02:23.938Z,2.95
2022-07-31T02:04:54.219Z,2.65
2022-07-31T02:07:24.090Z,2.60
2022-07-31T02:09:58.779Z,2.50
2022-07-31T02:12:32.995Z,2.65
2022-07-31T02:15:05.517Z,3.35
2022-07-31T02:17:35.066Z,3.08
2022-07-31T02:20:05.659Z,2.72
2022-07-31T02:22:34.990Z,3.30
2022-07-31T02:25:03.871Z,3.53
2022-07-31T02:27:54.310Z,3.30
2022-07-31T02:30:24.496Z,3.30
2022-07-31T02:32:53.693Z,3.63
2022-07-31T02:35:23.128Z,2.80
2022-07-31T02:37:54.295Z,3.05
2022-07-31T02:40:24.559Z,3.63
2022-07-31T02:42:58.455Z,3.53
2022-07-31T02:45:28.705Z,3.28
2022-07-31T02:47:57.168Z,3.60
2022-07-31T02:50:25.535Z,2.95
2022-07-31T02:52:54.247Z,2.90
2022-07-31T02:55:22.966Z,2.67
2022-07-31T02:57:52.550Z,3.00
2022-07-31T03:00:24.157Z,2.70
2022-07-31T03:02:54.746Z,2.80
2022-07-31T03:05:23.352Z,2.90
2022-07-31T03:07:51.824Z,3.65
2022-07-31T03:10:20.593Z,3.50
2022-07-31T03:12:52.386Z,3.13
2022-07-31T03:15:24.738Z,3.60
2022-07-31T03:17:55.648Z,2.92
2022-07-31T03:20:24.996Z,3.17
2022-07-31T03:22:53.332Z,3.25
2022-07-31T03:25:22.422Z,3.25
2022-07-31T03:27:56.265Z,3.05
2022-07-31T03:30:26.121Z,3.25
2022-07-31T03:32:56.478Z,3.33
2022-07-31T03:35:25.656Z,3.45
2022-07-31T03:37:54.365Z,3.53
2022-07-31T03:40:22.986Z,3.88
2022-07-31T03:42:51.841Z,3.60
2022-07-31T03:45:21.997Z,4.00
2022-07-31T03:47:50.713Z,3.88
2022-07-31T03:50:21.339Z,3.47
2022-07-31T03:52:50.516Z,3.70
2022-07-31T03:55:19.033Z,3.88
2022-07-31T03:57:48.058Z,4.60
2022-07-31T04:00:20.755Z,4.63
2022-07-31T04:02:49.098Z,3.92
2022-07-31T04:05:17.485Z,3.78
2022-07-31T04:07:47.202Z,4.03
2022-07-31T04:10:15.621Z,4.53
2022-07-31T04:12:43.994Z,4.57
2022-07-31T04:15:12.605Z,5.00
2022-07-31T04:17:40.773Z,4.60
2022-07-31T04:20:11.342Z,4.07
2022-07-31T04:22:40.103Z,5.00
2022-07-31T04:25:10.903Z,4.35
2022-07-31T04:27:48.266Z,4.88
2022-07-31T04:30:17.834Z,5.32
2022-07-31T04:32:46.085Z,5.60
2022-07-31T04:35:14.835Z,5.15
2022-07-31T04:37:48.231Z,5.10
2022-07-31T04:40:18.349Z,5.22
2022-07-31T04:42:46.647Z,5.32
2022-07-31T04:45:14.829Z,6.13
2022-07-31T04:47:43.062Z,5.68
2022-07-31T04:50:11.849Z,5.70
2022-07-31T04:52:39.978Z,6.35
2022-07-31T04:55:09.086Z,6.28
2022-07-31T04:57:38.966Z,5.55
2022-07-31T05:00:08.716Z,6.20
2022-07-31T05:02:37.133Z,5.60
2022-07-31T05:05:06.502Z,6.78
2022-07-31T05:07:35.533Z,5.97
2022-07-31T05:10:03.697Z,6.28
2022-07-31T05:12:32.178Z,5.40
2022-07-31T05:15:01.714Z,6.30
2022-07-31T05:17:29.996Z,5.72
2022-07-31T05:19:58.679Z,6.43
2022-07-31T05:22:27.176Z,6.20
2022-07-31T05:24:55.317Z,6.05
2022-07-31T05:27:23.635Z,6.18
2022-07-31T05:29:52.238Z,5.97
2022-07-31T05:32:21.831Z,5.95
2022-07-31T05:34:50.215Z,6.07
2022-07-31T05:37:19.452Z,5.82
2022-07-31T05:39:47.865Z,5.68
2022-07-31T05:42:16.169Z,5.72
2022-07-31T05:44:44.331Z,6.45
2022-07-31T05:47:16.026Z,5.55
2022-07-31T05:49:45.806Z,6.03
2022-07-31T05:52:13.874Z,6.55
2022-07-31T05:54:42.368Z,6.03
2022-07-31T05:57:10.887Z,6.50
2022-07-31T05:59:39.082Z,5.50
2022-07-31T06:02:07.708Z,6.22
2022-07-31T06:04:36.764Z,5.95
2022-07-31T06:07:06.385Z,5.93
2022-07-31T06:09:34.498Z,6.00
2022-07-31T06:12:03.308Z,5.85
2022-07-31T06:14:32.028Z,5.85
2022-07-31T06:17:00.264Z,6.20
2022-07-31T06:19:29.102Z,6.32
2022-07-31T06:21:58.947Z,6.50
2022-07-31T06:24:28.652Z,6.25
2022-07-31T06:26:59.287Z,6.32
2022-07-31T06:29:40.800Z,6.75
2022-07-31T06:32:10.853Z,7.03
2022-07-31T06:34:39.050Z,6.80
2022-07-31T06:37:07.292Z,6.93
2022-07-31T06:39:55.565Z,5.82
2022-07-31T06:42:25.782Z,6.13
2022-07-31T06:44:54.577Z,5.28
2022-07-31T06:47:24.936Z,5.38
2022-07-31T06:49:53.655Z,6.03
2022-07-31T06:52:21.916Z,5.50
2022-07-31T06:54:51.916Z,5.35
2022-07-31T06:57:20.138Z,4.97
2022-07-31T06:59:48.794Z,5.00
2022-07-31T07:02:17.238Z,4.55
2022-07-31T07:05:04.729Z,4.63
2022-07-31T07:07:37.067Z,4.47
2022-07-31T07:10:07.562Z,4.60
2022-07-31T07:12:35.680Z,4.38
2022-07-31T07:15:04.401Z,4.30
2022-07-31T07:17:32.660Z,4.00
2022-07-31T07:20:01.279Z,4.43
2022-07-31T07:22:31.497Z,4.05
2022-07-31T07:25:01.286Z,4.00
2022-07-31T07:27:31.232Z,3.50
2022-07-31T07:30:00.573Z,3.78
2022-07-31T07:32:28.862Z,4.30
2022-07-31T07:34:59.548Z,3.88
2022-07-31T07:37:29.719Z,4.40
2022-07-31T07:40:02.473Z,4.20
2022-07-31T07:42:33.865Z,3.85
2022-07-31T07:45:02.246Z,4.30
2022-07-31T07:48:05.362Z,4.63
2022-07-31T07:50:27.050Z,4.93
2022-07-31T07:52:57.959Z,4.20
2022-07-31T07:55:27.170Z,4.40
2022-07-31T07:57:56.803Z,4.53
2022-07-31T08:00:26.133Z,4.60
2022-07-31T08:03:47.647Z,4.82
2022-07-31T08:05:43.107Z,4.32
2022-07-31T08:08:11.712Z,4.70
2022-07-31T08:10:41.156Z,4.50
2022-07-31T08:13:10.791Z,4.65
2022-07-31T08:15:39.238Z,4.85
2022-07-31T08:18:07.530Z,4.80
2022-07-31T08:20:37.582Z,4.30
2022-07-31T08:23:06.329Z,4.30
2022-07-31T08:25:34.988Z,4.20
2022-07-31T08:28:03.141Z,4.32
2022-07-31T08:30:35.972Z,4.70
2022-07-31T08:33:04.254Z,4.57
2022-07-31T08:35:32.717Z,4.57
2022-07-31T08:38:04.558Z,4.18
2022-07-31T08:40:35.932Z,4.18
2022-07-31T08:44:00.219Z,3.90
2022-07-31T08:46:04.423Z,4.45
2022-07-31T08:48:34.254Z,4.15
2022-07-31T08:51:04.472Z,4.30
2022-07-31T08:53:37.020Z,4.30
2022-07-31T08:56:06.913Z,4.40
2022-07-31T08:58:39.231Z,4.55
2022-07-31T09:01:12.606Z,4.60
2022-07-31T09:03:40.965Z,4.68
2022-07-31T09:06:09.233Z,4.30
2022-07-31T09:08:39.153Z,4.20
2022-07-31T09:11:09.604Z,4.38
2022-07-31T09:13:38.352Z,4.65
2022-07-31T09:16:07.505Z,3.90
2022-07-31T09:18:37.131Z,4.38
2022-07-31T09:21:08.656Z,4.60
2022-07-31T09:23:47.018Z,4.10
2022-07-31T09:26:16.743Z,4.22
2022-07-31T09:28:47.078Z,4.03
2022-07-31T09:31:15.496Z,4.20
2022-07-31T09:33:47.626Z,4.10
2022-07-31T09:36:16.115Z,4.05
2022-07-31T09:38:45.418Z,3.53
2022-07-31T09:41:53.678Z,4.40
2022-07-31T09:44:09.383Z,3.97
2022-07-31T09:46:42.899Z,4.22
2022-07-31T09:49:12.808Z,4.05
2022-07-31T09:51:41.934Z,3.72
2022-07-31T09:54:21.245Z,4.05
2022-07-31T09:56:50.403Z,3.78
2022-07-31T09:59:18.997Z,3.60
2022-07-31T10:01:49.815Z,3.30
2022-07-31T10:04:21.034Z,3.10
2022-07-31T10:06:51.006Z,3.20
2022-07-31T10:09:20.503Z,3.53
2022-07-31T10:11:50.759Z,3.22
2022-07-31T10:14:28.549Z,3.20
2022-07-31T10:17:00.496Z,3.13
2022-07-31T10:19:36.105Z,2.95
2022-07-31T10:22:06.497Z,3.30
2022-07-31T10:24:37.801Z,2.88
2022-07-31T10:27:07.932Z,2.88
2022-07-31T10:29:40.433Z,2.78
2022-07-31T10:32:09.656Z,2.65
2022-07-31T10:34:39.859Z,2.70
2022-07-31T10:37:13.874Z,2.72
2022-07-31T10:39:50.787Z,2.33
2022-07-31T10:42:30.633Z,2.15
2022-07-31T10:45:08.638Z,1.92
2022-07-31T10:47:37.152Z,1.77
2022-07-31T10:50:08.409Z,1.80
2022-07-31T10:52:38.514Z,2.10
2022-07-31T10:55:17.639Z,2.20
2022-07-31T10:57:56.415Z,1.80
2022-07-31T11:00:30.018Z,1.70
2022-07-31T11:02:59.302Z,1.75
2022-07-31T11:05:29.177Z,1.55
2022-07-31T11:08:06.272Z,1.60
2022-07-31T11:10:35.131Z,1.30
2022-07-31T11:13:05.526Z,1.60
2022-07-31T11:15:34.833Z,1.38
2022-07-31T11:18:23.734Z,1.48
2022-07-31T11:21:13.731Z,1.20
2022-07-31T11:23:56.416Z,1.65
2022-07-31T11:26:32.787Z,1.42
2022-07-31T11:29:59.151Z,1.60
2022-07-31T11:31:50.502Z,1.20
2022-07-31T11:34:18.688Z,1.27
2022-07-31T11:36:51.523Z,1.05
2022-07-31T11:39:21.981Z,1.10
2022-07-31T11:42:07.678Z,1.20
2022-07-31T11:44:36.715Z,1.10
2022-07-31T11:48:09.706Z,1.10
2022-07-31T11:50:02.341Z,1.05
2022-07-31T11:52:36.806Z,1.05
2022-07-31T11:55:09.688Z,1.20
2022-07-31T11:57:51.490Z,1.10
2022-07-31T12:00:27.007Z,0.90
2022-07-31T12:02:58.142Z,1.05
2022-07-31T12:05:39.178Z,1.20
2022-07-31T12:08:09.398Z,0.90
2022-07-31T12:10:38.389Z,1.20
2022-07-31T12:13:10.111Z,1.00
2022-07-31T12:15:41.496Z,1.15
2022-07-31T12:18:09.713Z,1.00
2022-07-31T12:20:37.868Z,1.40
2022-07-31T12:23:40.440Z,1.23
2022-07-31T12:25:57.733Z,1.05
2022-07-31T12:28:26.478Z,1.40
2022-07-31T12:31:00.346Z,1.50
2022-07-31T12:33:28.928Z,1.48
2022-07-31T12:35:57.366Z,1.20
2022-07-31T12:38:45.743Z,1.20
2022-07-31T12:41:17.027Z,1.10
2022-07-31T12:43:52.094Z,1.20
2022-07-31T12:46:22.353Z,1.30
2022-07-31T12:48:50.885Z,1.25
2022-07-31T12:51:44.300Z,1.25
2022-07-31T12:54:11.182Z,1.27
2022-07-31T12:56:40.587Z,1.30
2022-07-31T12:59:09.960Z,1.30
2022-07-31T13:01:38.905Z,1.10
2022-07-31T13:04:19.270Z,1.30
2022-07-31T13:07:00.720Z,1.33
2022-07-31T13:09:30.351Z,1.40
2022-07-31T13:11:58.821Z,1.38
2022-07-31T13:14:28.184Z,1.60
2022-07-31T13:16:57.437Z,1.67
2022-07-31T13:19:25.881Z,1.58
2022-07-31T13:21:56.917Z,1.70
2022-07-31T13:24:25.604Z,1.73
2022-07-31T13:26:55.252Z,1.88
2022-07-31T13:29:23.474Z,1.83
2022-07-31T13:31:51.937Z,1.90
2022-07-31T13:34:20.545Z,2.20
2022-07-31T13:36:48.783Z,1.92
2022-07-31T13:39:16.952Z,2.20
2022-07-31T13:41:45.393Z,1.98
2022-07-31T13:44:15.117Z,1.88
2022-07-31T13:46:43.495Z,1.88
2022-07-31T13:49:12.889Z,1.90
2022-07-31T13:51:41.332Z,1.70
2022-07-31T13:54:09.535Z,1.70
2022-07-31T13:56:42.782Z,1.95
2022-07-31T13:59:12.897Z,1.88
2022-07-31T14:02:04.176Z,1.80
2022-07-31T14:04:38.659Z,1.70
2022-07-31T14:07:08.818Z,1.75
2022-07-31T14:09:37.734Z,1.80
2022-07-31T14:12:06.822Z,1.67
2022-07-31T14:14:35.921Z,1.65
2022-07-31T14:17:05.602Z,1.88
2022-07-31T14:19:44.208Z,1.50
2022-07-31T14:22:14.532Z,1.52
2022-07-31T14:24:49.395Z,1.40
2022-07-31T14:27:19.595Z,1.80
2022-07-31T14:29:47.878Z,1.50
2022-07-31T14:32:17.455Z,1.58
2022-07-31T14:34:45.982Z,1.55
2022-07-31T14:37:14.515Z,1.52
2022-07-31T14:39:43.316Z,1.30
2022-07-31T14:42:12.978Z,1.52
2022-07-31T14:44:42.784Z,1.50
2022-07-31T14:47:11.648Z,1.60
2022-07-31T14:50:09.525Z,1.52
2022-07-31T14:52:30.760Z,1.52
2022-07-31T14:55:00.011Z,1.20
2022-07-31T14:57:28.357Z,1.40
2022-07-31T14:59:56.881Z,1.58
2022-07-31T15:02:25.324Z,1.30
2022-07-31T15:04:55.405Z,1.30
2022-07-31T15:07:45.925Z,1.10
2022-07-31T15:10:13.376Z,1.48
2022-07-31T15:12:41.842Z,1.30
2022-07-31T15:15:11.230Z,1.42
2022-07-31T15:17:39.962Z,1.20
2022-07-31T15:20:11.057Z,1.52
2022-07-31T15:22:39.173Z,1.20
2022-07-31T15:25:09.042Z,1.38
2022-07-31T15:27:37.582Z,1.58
2022-07-31T15:30:07.965Z,1.30
2022-07-31T15:32:37.951Z,1.10
2022-07-31T15:35:08.909Z,1.15
2022-07-31T15:37:39.950Z,1.40
2022-07-31T15:40:10.703Z,1.70
2022-07-31T15:42:41.852Z,1.40
2022-07-31T15:45:11.576Z,1.38
2022-07-31T15:47:40.420Z,1.70
2022-07-31T15:50:11.254Z,1.35
2022-07-31T15:52:41.626Z,1.30
2022-07-31T15:55:11.745Z,1.50
2022-07-31T15:57:40.419Z,1.33
2022-07-31T16:00:10.699Z,1.33
2022-07-31T16:02:39.253Z,1.67
2022-07-31T16:05:21.299Z,1.60
2022-07-31T16:08:34.313Z,1.70
2022-07-31T16:10:54.095Z,1.70
2022-07-31T16:13:23.202Z,1.30
2022-07-31T16:15:51.529Z,1.40
2022-07-31T16:18:19.882Z,1.50
2022-07-31T16:20:48.263Z,1.70
2022-07-31T16:23:18.311Z,1.60
2022-07-31T16:25:46.621Z,1.50
2022-07-31T16:28:15.316Z,1.45
2022-07-31T16:30:45.913Z,1.60
2022-07-31T16:33:14.331Z,1.70
2022-07-31T16:35:42.536Z,1.60
2022-07-31T16:38:11.256Z,1.92
2022-07-31T16:40:40.964Z,2.10
2022-07-31T16:43:48.090Z,1.60
2022-07-31T16:45:58.581Z,1.45
2022-07-31T16:48:26.681Z,1.70
2022-07-31T16:50:55.271Z,1.65
2022-07-31T16:54:13.477Z,1.50
2022-07-31T16:56:15.047Z,1.33
2022-07-31T16:58:44.411Z,1.60
2022-07-31T17:01:58.120Z,1.98
2022-07-31T17:04:03.807Z,1.30
2022-07-31T17:06:36.821Z,1.63
2022-07-31T17:09:17.509Z,1.50
2022-07-31T17:11:49.985Z,1.20
2022-07-31T17:14:19.429Z,1.40
2022-07-31T17:16:49.786Z,1.67
2022-07-31T17:19:40.990Z,1.60
2022-07-31T17:22:11.216Z,1.48
2022-07-31T17:24:39.851Z,1.20
2022-07-31T17:27:10.991Z,1.33
2022-07-31T17:29:39.895Z,1.30
2022-07-31T17:32:11.277Z,1.50
2022-07-31T17:34:40.339Z,1.33
2022-07-31T17:37:08.942Z,1.33
2022-07-31T17:39:37.774Z,1.35
2022-07-31T17:42:06.533Z,1.70
2022-07-31T17:44:40.202Z,1.38
2022-07-31T17:47:15.355Z,1.40
2022-07-31T17:49:43.671Z,1.75
2022-07-31T17:52:12.262Z,2.10
2022-07-31T17:54:41.181Z,1.70
2022-07-31T17:57:09.295Z,1.80
2022-07-31T17:59:39.058Z,1.67
2022-07-31T18:02:07.782Z,1.65
2022-07-31T18:04:38.086Z,1.88
2022-07-31T18:07:07.535Z,1.83
2022-07-31T18:09:36.853Z,1.80
2022-07-31T18:12:06.107Z,1.95
2022-07-31T18:14:34.579Z,1.70
2022-07-31T18:17:04.348Z,2.08
2022-07-31T18:19:33.382Z,2.00
2022-07-31T18:22:02.007Z,1.95
2022-07-31T18:24:30.573Z,1.80
2022-07-31T18:26:58.660Z,2.15
2022-07-31T18:29:27.006Z,2.17
2022-07-31T18:31:55.452Z,2.10
2022-07-31T18:34:25.307Z,2.47
2022-07-31T18:36:55.088Z,2.00
2022-07-31T18:39:24.662Z,1.85
2022-07-31T18:41:52.869Z,2.30
2022-07-31T18:44:22.201Z,2.38
2022-07-31T18:46:50.956Z,2.10
2022-07-31T18:51:02.052Z,2.15
2022-07-31T18:52:11.784Z,2.20
2022-07-31T18:54:40.623Z,2.20
2022-07-31T18:57:09.405Z,2.05
2022-07-31T18:59:38.282Z,2.10
2022-07-31T19:02:11.544Z,2.20
2022-07-31T19:04:40.827Z,2.20
2022-07-31T19:07:10.673Z,2.08
2022-07-31T19:09:39.156Z,2.17
2022-07-31T19:12:08.915Z,2.13
2022-07-31T19:14:37.410Z,1.95
2022-07-31T19:17:06.005Z,1.70
2022-07-31T19:19:54.241Z,1.80
2022-07-31T19:22:24.604Z,1.88
2022-07-31T19:24:53.282Z,1.63
2022-07-31T19:27:21.496Z,1.83
2022-07-31T19:29:49.916Z,1.63
2022-07-31T19:32:18.216Z,1.63
2022-07-31T19:34:48.125Z,1.67
2022-07-31T19:37:20.934Z,2.00
2022-07-31T19:39:50.576Z,1.70
2022-07-31T19:42:20.032Z,1.77
2022-07-31T19:44:48.513Z,2.03
2022-07-31T19:47:16.684Z,2.17
2022-07-31T19:49:46.645Z,2.00
2022-07-31T19:52:15.446Z,2.30
2022-07-31T19:54:43.773Z,2.10
2022-07-31T19:57:13.395Z,2.20
2022-07-31T19:59:43.342Z,2.15
2022-07-31T20:02:16.555Z,2.60
2022-07-31T20:04:45.696Z,2.42
2022-07-31T20:07:14.827Z,2.70
2022-07-31T20:09:44.332Z,2.50
2022-07-31T20:12:15.567Z,2.78
2022-07-31T20:14:43.674Z,2.40
2022-07-31T20:17:11.940Z,2.55
2022-07-31T20:20:14.564Z,2.67
2022-07-31T20:22:28.813Z,1.83
2022-07-31T20:24:57.353Z,2.08
2022-07-31T20:27:27.312Z,2.40
2022-07-31T20:29:55.556Z,2.28
2022-07-31T20:32:24.438Z,2.10
2022-07-31T20:34:52.943Z,2.28
2022-07-31T20:37:21.337Z,1.95
2022-07-31T20:39:49.843Z,1.90
2022-07-31T20:42:18.352Z,2.00
2022-07-31T20:44:48.182Z,2.08
2022-07-31T20:47:16.417Z,1.80
2022-07-31T20:49:44.887Z,2.00
2022-07-31T20:52:13.257Z,2.00
2022-07-31T20:54:41.914Z,2.13
2022-07-31T20:57:10.333Z,1.83
2022-07-31T20:59:38.896Z,1.90
2022-07-31T21:02:08.956Z,2.13
2022-07-31T21:04:37.415Z,1.65
2022-07-31T21:07:05.563Z,2.10
2022-07-31T21:09:34.400Z,2.08
2022-07-31T21:12:03.259Z,1.55
2022-07-31T21:14:31.738Z,1.60
2022-07-31T21:17:00.389Z,1.75
2022-07-31T21:19:30.269Z,1.70
2022-07-31T21:21:59.045Z,2.00
2022-07-31T21:24:28.180Z,2.00
2022-07-31T21:26:59.527Z,2.03
2022-07-31T21:29:28.461Z,1.80
2022-07-31T21:31:57.708Z,2.10
2022-07-31T21:34:26.409Z,2.50
2022-07-31T21:36:57.019Z,1.88
2022-07-31T21:39:29.315Z,2.00
2022-07-31T21:41:58.009Z,2.03
2022-07-31T21:44:26.769Z,1.77
2022-07-31T21:46:57.047Z,2.03
2022-07-31T21:49:35.016Z,1.90
2022-07-31T21:52:06.283Z,1.67
2022-07-31T21:54:35.020Z,2.05
2022-07-31T21:57:03.899Z,1.90
2022-07-31T21:59:32.641Z,2.00
2022-07-31T22:02:02.152Z,1.98
2022-07-31T22:04:30.590Z,1.67
2022-07-31T22:07:22.781Z,2.30
2022-07-31T22:09:50.949Z,1.90
2022-07-31T22:12:19.293Z,2.03
2022-07-31T22:14:48.183Z,2.00
2022-07-31T22:17:16.342Z,1.98
2022-07-31T22:19:47.310Z,1.90
2022-07-31T22:22:18.848Z,1.85
2022-07-31T22:24:47.644Z,2.20
2022-07-31T22:27:33.598Z,2.33
2022-07-31T22:30:02.609Z,2.75
2022-07-31T22:32:31.154Z,2.20
2022-07-31T22:34:59.811Z,2.15
2022-07-31T22:37:29.850Z,2.22
2022-07-31T22:39:59.335Z,2.35
2022-07-31T22:42:28.855Z,2.50
2022-07-31T22:44:57.924Z,2.40
2022-07-31T22:47:27.473Z,2.38
2022-07-31T22:49:56.497Z,2.40
2022-07-31T22:52:25.106Z,2.60
2022-07-31T22:55:07.808Z,2.15
2022-07-31T22:57:36.182Z,2.30
2022-07-31T23:00:06.287Z,2.42
2022-07-31T23:02:34.982Z,2.50
2022-07-31T23:05:03.266Z,2.50
2022-07-31T23:07:31.844Z,2.28
2022-07-31T23:10:00.323Z,2.45
2022-07-31T23:12:30.240Z,2.50
2022-07-31T23:14:58.501Z,2.40
2022-07-31T23:17:26.933Z,2.50
2022-07-31T23:19:55.451Z,3.20
2022-07-31T23:22:33.798Z,2.78
2022-07-31T23:25:03.204Z,3.25
2022-07-31T23:27:33.182Z,2.92
2022-07-31T23:30:01.628Z,3.00
2022-07-31T23:32:30.402Z,3.55
2022-07-31T23:34:59.093Z,3.20
2022-07-31T23:37:27.471Z,3.05
2022-07-31T23:39:56.310Z,3.60
2022-07-31T23:42:38.876Z,3.65
2022-07-31T23:45:11.529Z,3.45
2022-07-31T23:47:45.613Z,4.00
2022-07-31T23:50:15.838Z,3.90
2022-07-31T23:52:44.586Z,4.40
2022-07-31T23:55:13.065Z,4.40
2022-07-31T23:57:42.112Z,4.07
